Time;durP1;ratioP1;P1;durP2;ratioP2;P2;SDS_P1;SDS_P2;PMS_P1;PMS_P2;Temp;Humidity;BMP_temperature;BMP_pressure;BME280_temperature;BME280_humidity;BME280_pressure;Samples;Min_cycle;Max_cycle;Signal;HPM_P1;HPM_P2
2021/01/08 00:00:53;;;;;;;7.87;4.33;;;;;;;2.42;100.00;97807.97;5074575;28;20225;-76
2021/01/08 00:03:19;;;;;;;7.43;3.97;;;;;;;2.35;100.00;97817.47;5073261;28;20267;-75
2021/01/08 00:05:47;;;;;;;10.57;4.77;;;;;;;2.47;100.00;97810.97;5073595;28;20246;-74
2021/01/08 00:08:14;;;;;;;7.17;4.03;;;;;;;2.48;100.00;97807.34;5071059;28;20205;-75
2021/01/08 00:10:41;;;;;;;9.33;4.50;;;;;;;2.45;100.00;97810.28;5071464;28;20236;-75
2021/01/08 00:13:08;;;;;;;9.93;4.90;;;;;;;2.34;100.00;97810.53;5066178;28;20202;-77
2021/01/08 00:15:34;;;;;;;9.70;4.70;;;;;;;2.34;100.00;97804.47;5070595;28;20205;-75
2021/01/08 00:18:01;;;;;;;9.77;5.13;;;;;;;2.41;100.00;97805.50;5071103;28;20692;-75
2021/01/08 00:20:28;;;;;;;12.13;4.60;;;;;;;2.51;100.00;97799.16;5073797;28;20232;-74
2021/01/08 00:22:56;;;;;;;7.57;4.53;;;;;;;2.53;100.00;97802.44;5074634;28;20204;-77
2021/01/08 00:25:22;;;;;;;9.00;3.90;;;;;;;2.59;100.00;97806.28;5074739;28;20580;-74
2021/01/08 00:27:49;;;;;;;10.83;4.53;;;;;;;2.46;100.00;97800.59;5075547;28;20213;-75
2021/01/08 00:30:17;;;;;;;8.47;4.60;;;;;;;2.60;100.00;97805.28;5071320;28;20230;-75
2021/01/08 00:32:43;;;;;;;9.57;4.70;;;;;;;2.54;100.00;97805.91;5063643;28;20205;-75
2021/01/08 00:35:11;;;;;;;6.90;4.60;;;;;;;2.44;100.00;97810.47;5069542;28;20201;-75
2021/01/08 00:37:37;;;;;;;10.43;4.97;;;;;;;2.39;100.00;97808.28;5073246;28;20197;-75
2021/01/08 00:40:06;;;;;;;9.53;4.73;;;;;;;2.40;100.00;97812.56;5071744;28;20232;-74
2021/01/08 00:42:34;;;;;;;8.20;4.60;;;;;;;2.61;100.00;97805.13;5070687;28;20204;-75
2021/01/08 00:45:01;;;;;;;9.90;4.77;;;;;;;2.45;100.00;97801.56;5073553;28;20205;-74
2021/01/08 00:47:28;;;;;;;9.17;5.07;;;;;;;2.70;100.00;97806.81;5073972;28;20287;-74
2021/01/08 00:49:55;;;;;;;9.00;4.40;;;;;;;2.77;100.00;97807.00;5064446;28;20193;-75
2021/01/08 00:52:21;;;;;;;11.30;4.73;;;;;;;2.68;100.00;97811.41;5070371;28;20201;-75
2021/01/08 00:54:50;;;;;;;8.17;3.90;;;;;;;2.63;100.00;97810.22;5072430;28;20209;-74
2021/01/08 00:57:17;;;;;;;7.77;4.30;;;;;;;2.55;100.00;97807.56;5065341;28;20205;-74
2021/01/08 00:59:44;;;;;;;7.70;4.10;;;;;;;2.64;100.00;97814.53;5073377;28;20248;-74
2021/01/08 01:02:11;;;;;;;8.57;4.00;;;;;;;2.69;100.00;97807.78;5071481;28;20220;-74
2021/01/08 01:04:38;;;;;;;8.50;4.00;;;;;;;2.72;100.00;97812.75;5072709;28;20685;-74
2021/01/08 01:07:04;;;;;;;8.10;3.80;;;;;;;2.67;100.00;97808.94;5071601;28;20546;-74
2021/01/08 01:09:31;;;;;;;6.70;3.67;;;;;;;2.74;100.00;97808.16;5073530;28;20291;-74
2021/01/08 01:11:58;;;;;;;9.37;4.30;;;;;;;2.77;100.00;97813.13;5070054;28;20281;-74
2021/01/08 01:14:26;;;;;;;8.60;4.20;;;;;;;2.79;100.00;97808.50;5061329;28;20251;-74
2021/01/08 01:16:52;;;;;;;9.67;3.93;;;;;;;2.84;100.00;97811.50;5071658;28;20201;-74
2021/01/08 01:19:19;;;;;;;8.27;4.03;;;;;;;2.81;100.00;97814.47;5073482;28;20197;-74
2021/01/08 01:21:46;;;;;;;9.77;4.30;;;;;;;2.76;100.00;97819.38;5071684;28;20589;-74
2021/01/08 01:24:13;;;;;;;7.60;4.27;;;;;;;2.83;100.00;97819.53;5061934;28;20270;-74
2021/01/08 01:26:40;;;;;;;8.53;4.50;;;;;;;2.48;100.00;97827.56;5071482;28;20204;-74
2021/01/08 01:29:08;;;;;;;9.23;4.07;;;;;;;2.73;100.00;97826.75;5076610;28;20197;-74
2021/01/08 01:31:36;;;;;;;8.20;3.87;;;;;;;2.68;100.00;97824.59;5068860;28;20233;-74
2021/01/08 01:34:02;;;;;;;6.57;3.63;;;;;;;2.60;100.00;97818.44;5065714;28;20205;-75
2021/01/08 01:36:30;;;;;;;6.57;3.50;;;;;;;2.45;100.00;97820.00;5073803;28;20208;-73
2021/01/08 01:38:57;;;;;;;7.27;3.67;;;;;;;2.40;100.00;97817.81;5073398;28;20205;-75
2021/01/08 01:41:23;;;;;;;6.80;4.03;;;;;;;2.28;100.00;97828.75;5071614;28;20228;-74
2021/01/08 01:43:50;;;;;;;6.63;3.70;;;;;;;2.08;100.00;97825.50;5068861;28;20255;-73
2021/01/08 01:46:20;;;;;;;7.67;3.60;;;;;;;1.94;100.00;97828.66;5061785;28;20202;-75
2021/01/08 01:48:48;;;;;;;7.50;3.83;;;;;;;1.87;100.00;97826.78;5069542;28;20212;-75
2021/01/08 01:51:15;;;;;;;8.10;3.77;;;;;;;1.77;100.00;97824.25;5072052;28;20702;-76
2021/01/08 01:53:42;;;;;;;7.77;3.87;;;;;;;1.64;100.00;97834.31;5073090;28;20296;-75
2021/01/08 01:56:09;;;;;;;8.17;3.67;;;;;;;1.61;100.00;97837.25;5071906;28;20555;-75
2021/01/08 01:58:36;;;;;;;7.30;3.67;;;;;;;1.58;100.00;97832.28;5069935;28;20197;-75
2021/01/08 02:01:03;;;;;;;8.73;4.23;;;;;;;1.49;100.00;97835.00;5057587;28;20225;-75
2021/01/08 02:03:35;;;;;;;8.63;3.53;;;;;;;1.47;100.00;97839.56;5070091;28;20200;-75
2021/01/08 02:06:06;;;;;;;7.17;3.83;;;;;;;1.54;100.00;97835.38;5071639;28;20337;-75
2021/01/08 02:08:32;;;;;;;7.27;3.50;;;;;;;1.51;100.00;97833.88;5068453;28;20223;-75
2021/01/08 02:11:01;;;;;;;7.57;3.50;;;;;;;1.64;100.00;97830.88;5074195;28;20696;-76
2021/01/08 02:13:36;;;;;;;6.20;3.80;;;;;;;1.78;100.00;97832.97;5062756;28;20201;-75
2021/01/08 02:16:03;;;;;;;6.53;3.87;;;;;;;1.80;100.00;97833.66;5062619;28;20249;-75
2021/01/08 02:18:30;;;;;;;6.57;3.60;;;;;;;1.59;100.00;97835.75;5069128;28;20192;-75
2021/01/08 02:21:00;;;;;;;7.80;3.93;;;;;;;1.64;100.00;97836.13;5073187;28;20232;-77
2021/01/08 02:23:36;;;;;;;8.13;3.87;;;;;;;1.58;100.00;97831.47;5073378;28;20205;-75
2021/01/08 02:26:04;;;;;;;7.90;3.97;;;;;;;1.68;100.00;97840.13;5060194;28;20204;-75
2021/01/08 02:28:31;;;;;;;8.73;4.20;;;;;;;1.88;100.00;97834.53;5065012;28;20204;-75
2021/01/08 02:30:58;;;;;;;7.50;3.93;;;;;;;1.95;100.00;97838.22;5068218;28;20225;-75
2021/01/08 02:33:25;;;;;;;7.57;3.93;;;;;;;1.96;100.00;97829.34;5071425;28;20205;-75
2021/01/08 02:35:52;;;;;;;6.07;3.50;;;;;;;1.92;100.00;97829.78;5067814;28;20197;-75
2021/01/08 02:38:21;;;;;;;8.57;3.67;;;;;;;2.04;100.00;97832.03;5071375;28;20200;-75
2021/01/08 02:40:49;;;;;;;9.13;4.00;;;;;;;1.96;100.00;97834.63;5069793;28;20229;-75
2021/01/08 02:43:22;;;;;;;8.83;3.63;;;;;;;2.12;100.00;97829.47;5069053;28;20661;-75
2021/01/08 02:45:49;;;;;;;5.43;2.93;;;;;;;2.11;100.00;97835.72;5065390;28;20202;-75
2021/01/08 02:48:16;;;;;;;6.50;3.57;;;;;;;2.03;100.00;97826.94;5069717;28;20729;-75
2021/01/08 02:50:43;;;;;;;8.27;4.30;;;;;;;2.03;100.00;97830.38;5064951;28;20221;-75
2021/01/08 02:53:13;;;;;;;6.97;3.87;;;;;;;1.96;100.00;97836.41;5072249;28;20232;-76
2021/01/08 02:55:46;;;;;;;7.60;3.43;;;;;;;2.15;100.00;97830.97;5072317;28;20207;-75
2021/01/08 02:58:12;;;;;;;7.63;3.63;;;;;;;2.19;100.00;97825.25;5069039;28;20204;-75
2021/01/08 03:00:40;;;;;;;6.40;3.43;;;;;;;2.23;100.00;97823.97;5077839;28;20228;-77
2021/01/08 03:03:07;;;;;;;5.40;3.33;;;;;;;2.29;100.00;97825.16;5078006;28;20197;-76
2021/01/08 03:05:34;;;;;;;6.40;3.30;;;;;;;2.04;100.00;97825.97;5064646;28;20296;-75
2021/01/08 03:08:01;;;;;;;4.90;3.10;;;;;;;2.10;100.00;97818.28;5074372;28;20626;-75
2021/01/08 03:10:28;;;;;;;7.07;3.47;;;;;;;2.16;100.00;97817.69;5072271;28;20697;-75
2021/01/08 03:12:58;;;;;;;6.03;3.37;;;;;;;1.98;100.00;97816.06;5072888;28;20548;-75
2021/01/08 03:15:25;;;;;;;5.23;3.13;;;;;;;2.21;100.00;97822.47;5074060;28;20204;-75
2021/01/08 03:17:53;;;;;;;6.53;3.40;;;;;;;2.17;100.00;97814.06;5078002;28;20209;-75
2021/01/08 03:20:20;;;;;;;6.57;3.43;;;;;;;2.21;100.00;97815.41;5074414;28;20220;-73
2021/01/08 03:22:47;;;;;;;7.60;3.43;;;;;;;2.25;100.00;97810.66;5077852;28;20214;-76
2021/01/08 03:25:14;;;;;;;8.27;3.73;;;;;;;2.04;100.00;97812.81;5075206;28;20201;-75
2021/01/08 03:27:40;;;;;;;7.17;3.87;;;;;;;2.21;100.00;97811.94;5066679;28;20213;-75
2021/01/08 03:30:09;;;;;;;6.77;3.70;;;;;;;2.27;100.00;97808.69;5078070;28;20217;-76
2021/01/08 03:32:36;;;;;;;8.23;3.70;;;;;;;2.14;100.00;97806.44;5077866;28;20541;-75
2021/01/08 03:35:05;;;;;;;5.47;3.57;;;;;;;2.18;100.00;97805.16;5077568;28;20241;-75
2021/01/08 03:37:32;;;;;;;6.87;3.87;;;;;;;2.20;100.00;97807.66;5077771;28;20205;-75
2021/01/08 03:39:59;;;;;;;7.73;3.70;;;;;;;2.24;100.00;97806.38;5072424;28;20252;-75
2021/01/08 03:42:25;;;;;;;6.90;3.27;;;;;;;2.21;100.00;97807.50;5065475;28;20201;-75
2021/01/08 03:44:52;;;;;;;8.20;3.40;;;;;;;2.29;100.00;97812.81;5078417;28;20201;-73
2021/01/08 03:47:19;;;;;;;9.07;3.80;;;;;;;2.22;100.00;97817.06;5077365;28;20254;-73
2021/01/08 03:49:46;;;;;;;6.93;3.87;;;;;;;2.27;100.00;97809.53;5074284;28;20204;-75
2021/01/08 03:52:13;;;;;;;8.77;4.17;;;;;;;2.17;100.00;97810.59;5077278;28;20216;-74
2021/01/08 03:54:40;;;;;;;8.17;3.53;;;;;;;2.30;100.00;97809.19;5061310;28;20198;-74
2021/01/08 03:57:07;;;;;;;7.07;3.77;;;;;;;2.22;100.00;97810.94;5067634;28;20212;-74
2021/01/08 03:59:34;;;;;;;7.80;3.97;;;;;;;2.22;100.00;97801.25;5078478;28;20197;-75
2021/01/08 04:02:01;;;;;;;7.10;3.83;;;;;;;2.30;100.00;97806.56;5077952;28;20221;-75
2021/01/08 04:04:28;;;;;;;7.67;3.70;;;;;;;2.34;100.00;97807.09;5076148;28;20205;-74
2021/01/08 04:06:54;;;;;;;8.80;3.87;;;;;;;2.33;100.00;97805.44;5069892;28;20201;-74
2021/01/08 04:09:22;;;;;;;8.13;3.90;;;;;;;2.26;100.00;97805.25;5066129;28;20197;-74
2021/01/08 04:11:49;;;;;;;4.30;2.50;;;;;;;2.18;100.00;97799.09;5069413;28;20224;-75
2021/01/08 04:14:16;;;;;;;8.83;3.30;;;;;;;2.22;100.00;97798.63;5070430;28;20201;-74
2021/01/08 04:16:43;;;;;;;5.50;3.23;;;;;;;2.17;100.00;97798.25;5074363;28;20201;-74
2021/01/08 04:19:09;;;;;;;10.80;4.67;;;;;;;2.24;100.00;97799.28;5063630;28;20568;-74
2021/01/08 04:21:36;;;;;;;5.70;3.37;;;;;;;2.16;100.00;97796.63;5063843;28;20681;-75
2021/01/08 04:24:04;;;;;;;7.10;3.47;;;;;;;2.23;100.00;97794.16;5074477;28;20202;-74
2021/01/08 04:26:32;;;;;;;6.93;3.70;;;;;;;2.19;100.00;97803.38;5078930;28;20201;-74
2021/01/08 04:28:59;;;;;;;8.67;3.43;;;;;;;2.23;100.00;97797.63;5081250;28;20213;-75
2021/01/08 04:31:25;;;;;;;5.97;3.63;;;;;;;2.22;100.00;97796.00;5079249;28;20238;-74
2021/01/08 04:33:52;;;;;;;6.83;3.30;;;;;;;2.14;100.00;97803.00;5074555;28;20211;-73
2021/01/08 04:36:19;;;;;;;5.73;3.30;;;;;;;2.22;100.00;97797.78;5070099;28;20219;-74
2021/01/08 04:38:46;;;;;;;6.40;3.17;;;;;;;2.08;100.00;97799.19;5073955;28;20236;-74
2021/01/08 04:41:13;;;;;;;6.93;3.57;;;;;;;2.09;100.00;97800.00;5073804;28;20688;-74
2021/01/08 04:43:40;;;;;;;6.40;3.37;;;;;;;2.26;100.00;97797.34;5074223;28;20279;-75
2021/01/08 04:46:10;;;;;;;6.80;3.37;;;;;;;2.19;100.00;97796.28;5074221;28;20218;-75
2021/01/08 04:48:37;;;;;;;7.47;3.77;;;;;;;2.20;100.00;97783.97;5060216;28;20202;-74
2021/01/08 04:51:05;;;;;;;6.87;4.07;;;;;;;2.18;100.00;97792.00;5065390;28;20228;-74
2021/01/08 04:53:33;;;;;;;8.33;3.70;;;;;;;2.11;100.00;97791.00;5068967;28;20251;-74
2021/01/08 04:56:03;;;;;;;8.40;3.43;;;;;;;2.25;100.00;97793.03;5073449;28;20232;-73
2021/01/08 04:58:32;;;;;;;6.53;3.33;;;;;;;2.19;100.00;97785.75;5073734;28;20212;-75
2021/01/08 05:01:01;;;;;;;5.97;3.70;;;;;;;2.00;100.00;97790.41;5069087;28;20241;-74
2021/01/08 05:03:28;;;;;;;9.13;4.60;;;;;;;1.97;100.00;97790.69;5064862;28;20207;-74
2021/01/08 05:05:55;;;;;;;6.77;3.73;;;;;;;2.04;100.00;97789.94;5070246;28;20571;-74
2021/01/08 05:08:23;;;;;;;9.27;3.93;;;;;;;2.07;100.00;97797.53;5069472;28;20201;-74
2021/01/08 05:10:50;;;;;;;7.47;3.67;;;;;;;2.09;100.00;97790.28;5072141;28;20225;-74
2021/01/08 05:13:17;;;;;;;7.83;3.60;;;;;;;1.99;100.00;97789.56;5073138;28;20250;-75
2021/01/08 05:15:51;;;;;;;7.70;3.90;;;;;;;1.99;100.00;97794.81;5071364;28;20209;-74
2021/01/08 05:18:20;;;;;;;7.47;3.93;;;;;;;2.03;100.00;97795.38;5052986;28;20212;-74
2021/01/08 05:20:50;;;;;;;7.63;3.60;;;;;;;1.87;100.00;97789.97;5072300;28;20225;-74
2021/01/08 05:23:17;;;;;;;7.40;3.53;;;;;;;2.07;100.00;97789.63;5072866;28;20197;-74
2021/01/08 05:25:46;;;;;;;9.47;4.13;;;;;;;2.10;100.00;97791.97;5072720;28;20262;-73
2021/01/08 05:28:16;;;;;;;6.13;3.57;;;;;;;2.13;100.00;97793.47;5072774;28;20276;-74
2021/01/08 05:30:43;;;;;;;7.47;3.70;;;;;;;2.20;100.00;97782.16;5070623;28;20668;-75
2021/01/08 05:33:14;;;;;;;6.40;3.53;;;;;;;2.19;100.00;97780.50;5071262;28;20204;-74
2021/01/08 05:35:42;;;;;;;9.27;4.30;;;;;;;2.24;100.00;97780.06;5069767;28;20571;-74
2021/01/08 05:38:10;;;;;;;6.70;3.57;;;;;;;2.29;100.00;97777.78;5072235;28;20552;-73
2021/01/08 05:40:40;;;;;;;8.80;3.80;;;;;;;2.23;100.00;97788.91;5072179;28;20225;-74
2021/01/08 05:43:07;;;;;;;6.57;3.77;;;;;;;2.26;100.00;97786.81;5072212;28;20217;-74
2021/01/08 05:45:33;;;;;;;7.17;3.43;;;;;;;2.27;100.00;97792.88;5067984;28;20201;-74
2021/01/08 05:48:03;;;;;;;7.77;3.57;;;;;;;2.10;100.00;97793.75;5055274;28;20228;-74
2021/01/08 05:50:30;;;;;;;5.57;3.37;;;;;;;2.27;100.00;97800.78;5064970;28;20628;-74
2021/01/08 05:53:03;;;;;;;6.17;3.23;;;;;;;2.25;100.00;97795.66;5071751;28;20208;-75
2021/01/08 05:55:34;;;;;;;6.93;3.60;;;;;;;2.21;100.00;97796.97;5068870;28;20193;-74
2021/01/08 05:58:05;;;;;;;6.67;3.23;;;;;;;2.26;100.00;97799.97;5068839;28;20703;-75
2021/01/08 06:00:31;;;;;;;6.70;3.43;;;;;;;2.28;100.00;97800.63;5069346;28;20228;-76
2021/01/08 06:02:59;;;;;;;6.43;3.40;;;;;;;2.16;100.00;97793.97;5062916;28;20679;-73
2021/01/08 06:05:27;;;;;;;5.77;3.07;;;;;;;2.07;100.00;97799.31;5067466;28;20208;-74
2021/01/08 06:07:58;;;;;;;7.10;3.17;;;;;;;2.03;100.00;97801.44;5068414;28;20579;-73
2021/01/08 06:10:26;;;;;;;6.17;3.20;;;;;;;1.89;100.00;97807.25;5068582;28;20221;-74
2021/01/08 06:12:53;;;;;;;5.30;3.13;;;;;;;1.88;100.00;97802.16;5071823;28;20205;-74
2021/01/08 06:15:20;;;;;;;7.47;3.13;;;;;;;1.93;100.00;97811.22;5067692;28;20212;-75
2021/01/08 06:17:48;;;;;;;5.93;3.03;;;;;;;2.02;100.00;97814.75;5055718;28;20236;-75
2021/01/08 06:20:15;;;;;;;5.00;2.90;;;;;;;2.03;100.00;97804.06;5066869;28;20233;-74
2021/01/08 06:22:43;;;;;;;5.57;2.70;;;;;;;2.13;100.00;97807.44;5072289;28;20262;-74
2021/01/08 06:25:11;;;;;;;5.17;2.87;;;;;;;2.15;100.00;97807.28;5071031;28;20201;-74
2021/01/08 06:27:38;;;;;;;5.00;2.70;;;;;;;2.19;100.00;97811.28;5071366;28;20201;-75
2021/01/08 06:30:07;;;;;;;4.73;2.73;;;;;;;2.28;100.00;97805.91;5070546;28;20599;-74
2021/01/08 06:32:35;;;;;;;4.97;2.70;;;;;;;2.30;100.00;97813.66;5063061;28;20673;-75
2021/01/08 06:35:05;;;;;;;5.00;2.80;;;;;;;2.35;100.00;97808.75;5069491;28;20723;-72
2021/01/08 06:37:38;;;;;;;4.40;2.77;;;;;;;2.39;100.00;97812.72;5071947;28;20199;-73
2021/01/08 06:40:07;;;;;;;4.70;2.90;;;;;;;2.45;100.00;97805.00;5070724;28;20204;-72
2021/01/08 06:42:43;;;;;;;5.90;2.60;;;;;;;2.45;100.00;97812.09;5071554;28;20201;-73
2021/01/08 06:45:13;;;;;;;5.80;3.00;;;;;;;2.52;100.00;97802.59;5069813;28;20200;-73
2021/01/08 06:47:44;;;;;;;5.10;2.70;;;;;;;2.44;100.00;97811.28;5051828;28;20202;-73
2021/01/08 06:50:17;;;;;;;5.23;3.27;;;;;;;2.53;100.00;97809.50;5070055;28;20193;-74
2021/01/08 06:52:48;;;;;;;5.50;2.90;;;;;;;2.47;100.00;97813.59;5066885;28;20201;-72
2021/01/08 06:55:19;;;;;;;4.33;2.83;;;;;;;2.45;100.00;97815.53;5052940;28;20250;-72
2021/01/08 06:57:54;;;;;;;6.20;3.03;;;;;;;2.40;100.00;97815.19;5064324;28;20217;-71
2021/01/08 07:00:27;;;;;;;5.73;3.07;;;;;;;2.59;100.00;97820.25;5065484;28;20690;-71
2021/01/08 07:02:57;;;;;;;5.70;2.80;;;;;;;2.56;100.00;97815.31;5055666;28;20227;-71
2021/01/08 07:05:25;;;;;;;5.17;2.83;;;;;;;2.66;100.00;97817.81;5067909;28;20279;-72
2021/01/08 07:07:52;;;;;;;5.97;2.90;;;;;;;2.61;100.00;97820.94;5063222;28;20665;-73
2021/01/08 07:10:20;;;;;;;4.93;2.70;;;;;;;2.51;100.00;97827.28;5067005;28;20312;-74
2021/01/08 07:12:50;;;;;;;3.90;2.33;;;;;;;2.61;100.00;97828.84;5071925;28;20288;-73
2021/01/08 07:15:19;;;;;;;5.30;2.97;;;;;;;2.56;100.00;97836.38;5064831;28;20201;-74
2021/01/08 07:17:50;;;;;;;5.43;3.13;;;;;;;2.51;100.00;97835.19;5065334;28;20259;-74
2021/01/08 07:20:19;;;;;;;6.53;3.30;;;;;;;2.59;100.00;97828.16;5071737;28;20221;-73
2021/01/08 07:22:52;;;;;;;7.20;3.13;;;;;;;2.43;100.00;97835.94;5078187;28;20654;-74
2021/01/08 07:25:23;;;;;;;5.43;2.87;;;;;;;2.56;100.00;97839.00;5075349;28;20564;-74
2021/01/08 07:27:50;;;;;;;7.90;3.07;;;;;;;2.63;100.00;97834.75;5073186;28;20278;-75
2021/01/08 07:30:18;;;;;;;4.63;2.77;;;;;;;2.63;100.00;97833.94;5064271;28;20255;-74
2021/01/08 07:32:47;;;;;;;4.90;2.80;;;;;;;2.63;100.00;97844.47;5063582;28;20316;-74
2021/01/08 07:35:22;;;;;;;5.83;3.37;;;;;;;2.65;100.00;97835.41;5066419;28;20457;-73
2021/01/08 07:37:59;;;;;;;4.03;2.53;;;;;;;2.43;100.00;97843.00;5071390;28;20208;-74
2021/01/08 07:40:27;;;;;;;5.30;3.20;;;;;;;2.57;100.00;97837.19;5072475;28;20224;-74
2021/01/08 07:42:58;;;;;;;4.83;3.00;;;;;;;2.49;100.00;97842.41;5074691;28;20209;-73
2021/01/08 07:45:48;;;;;;;6.17;3.00;;;;;;;2.45;100.00;97848.97;5060472;28;20198;-73
2021/01/08 07:48:22;;;;;;;7.13;3.37;;;;;;;2.60;100.00;97848.22;5069058;28;20211;-71
2021/01/08 07:50:54;;;;;;;7.53;3.43;;;;;;;2.76;100.00;97844.88;5076759;28;20482;-70
2021/01/08 07:53:43;;;;;;;6.30;2.97;;;;;;;2.90;100.00;97854.84;5064890;28;20198;-74
2021/01/08 07:56:11;;;;;;;5.50;2.80;;;;;;;2.75;100.00;97851.94;5073168;28;20864;-76
2021/01/08 07:58:38;;;;;;;6.53;3.30;;;;;;;2.84;100.00;97858.91;5070941;28;20619;-76
2021/01/08 08:01:07;;;;;;;4.20;2.33;;;;;;;2.89;100.00;97854.00;5075452;28;20243;-72
2021/01/08 08:03:34;;;;;;;4.40;2.43;;;;;;;2.98;100.00;97860.13;5075442;28;20198;-74
2021/01/08 08:06:02;;;;;;;4.37;2.70;;;;;;;2.85;100.00;97857.94;5073319;28;20228;-74
2021/01/08 08:08:29;;;;;;;6.27;3.30;;;;;;;2.93;100.00;97867.69;5060092;28;20209;-74
2021/01/08 08:11:08;;;;;;;4.90;3.00;;;;;;;2.99;100.00;97867.06;5072386;28;20789;-74
2021/01/08 08:13:36;;;;;;;5.63;2.80;;;;;;;2.86;100.00;97869.31;5074717;28;20660;-73
2021/01/08 08:16:03;;;;;;;5.37;2.70;;;;;;;2.96;100.00;97878.75;5074310;28;20648;-75
2021/01/08 08:18:31;;;;;;;5.17;2.50;;;;;;;3.08;100.00;97879.31;5071864;28;20623;-81
2021/01/08 08:21:09;;;;;;;5.07;2.53;;;;;;;2.96;100.00;97876.09;5074565;28;20252;-76
2021/01/08 08:23:36;;;;;;;4.40;2.60;;;;;;;2.82;100.00;97878.50;5073883;28;20198;-74
2021/01/08 08:26:04;;;;;;;4.70;2.67;;;;;;;3.02;100.00;97882.56;5073298;28;20669;-72
2021/01/08 08:28:31;;;;;;;5.95;2.78;;;;;;;2.82;100.00;97887.25;5067944;28;20434;-77
2021/01/08 08:30:57;;;;;;;6.90;2.90;;;;;;;3.05;100.00;97893.63;5073064;28;20356;-78
2021/01/08 08:33:25;;;;;;;5.57;2.40;;;;;;;3.05;100.00;97888.34;5072778;28;20201;-74
2021/01/08 08:35:53;;;;;;;4.43;2.57;;;;;;;3.15;100.00;97896.97;5073565;28;20213;-75
2021/01/08 08:38:20;;;;;;;3.37;1.87;;;;;;;3.25;100.00;97897.66;5071087;28;20541;-71
2021/01/08 08:40:47;;;;;;;5.53;2.20;;;;;;;3.22;100.00;97903.28;5052766;28;20250;-71
2021/01/08 08:43:21;;;;;;;4.90;2.13;;;;;;;3.11;100.00;97900.09;5066818;28;20270;-71
2021/01/08 08:45:48;;;;;;;2.60;2.10;;;;;;;3.14;100.00;97900.59;5076735;28;20227;-73
2021/01/08 08:48:18;;;;;;;4.53;2.20;;;;;;;3.21;100.00;97900.78;5073482;28;20283;-75
2021/01/08 08:50:44;;;;;;;3.33;2.17;;;;;;;3.30;100.00;97903.31;5065165;28;20332;-72
2021/01/08 08:53:12;;;;;;;3.83;2.10;;;;;;;3.00;100.00;97916.19;5076090;28;20196;-73
2021/01/08 08:55:40;;;;;;;3.03;2.00;;;;;;;2.78;100.00;97920.16;5071896;28;20208;-77
2021/01/08 08:58:10;;;;;;;3.40;1.73;;;;;;;2.99;100.00;97920.59;5070228;28;20209;-73
2021/01/08 09:00:38;;;;;;;3.23;1.90;;;;;;;3.24;100.00;97914.47;5056507;28;20772;-70
2021/01/08 09:03:26;;;;;;;2.87;1.67;;;;;;;3.44;100.00;97922.97;5056066;28;20239;-77
2021/01/08 09:05:53;;;;;;;3.57;1.70;;;;;;;3.50;100.00;97920.53;5054989;28;20840;-72
2021/01/08 09:08:24;;;;;;;2.80;1.77;;;;;;;3.55;100.00;97923.50;5066534;28;20205;-80
2021/01/08 09:10:58;;;;;;;3.03;1.97;;;;;;;3.37;100.00;97921.97;5065734;28;20236;-72
2021/01/08 09:13:38;;;;;;;2.97;1.50;;;;;;;3.39;100.00;97922.63;5065234;28;20206;-72
2021/01/08 09:16:14;;;;;;;4.37;1.80;;;;;;;3.48;100.00;97913.75;5070410;28;20204;-72
2021/01/08 09:18:45;;;;;;;3.63;2.10;;;;;;;3.57;100.00;97918.94;5070983;28;20213;-72
2021/01/08 09:21:16;;;;;;;3.37;1.83;;;;;;;3.48;100.00;97916.41;5069757;28;20222;-73
2021/01/08 09:23:46;;;;;;;2.67;1.53;;;;;;;3.37;100.00;97917.53;5063344;28;20208;-74
2021/01/08 09:26:17;;;;;;;3.90;1.90;;;;;;;3.61;100.00;97920.22;5070428;28;20215;-72
2021/01/08 09:28:45;;;;;;;3.17;1.80;;;;;;;3.69;100.00;97915.00;5072599;28;20210;-75
2021/01/08 09:31:12;;;;;;;2.37;1.60;;;;;;;3.54;100.00;97916.59;5065584;28;20223;-74
2021/01/08 09:33:39;;;;;;;2.97;1.90;;;;;;;3.45;100.00;97914.09;5067802;28;20202;-74
2021/01/08 09:36:07;;;;;;;2.30;1.33;;;;;;;3.35;100.00;97919.47;5067282;28;20205;-75
2021/01/08 09:38:36;;;;;;;4.17;1.73;;;;;;;3.42;100.00;97922.31;5068067;28;20260;-76
2021/01/08 09:41:04;;;;;;;2.93;1.67;;;;;;;3.39;100.00;97920.81;5066598;28;20596;-74
2021/01/08 09:43:31;;;;;;;2.83;1.57;;;;;;;3.56;100.00;97919.88;5072241;28;20202;-76
2021/01/08 09:46:02;;;;;;;2.50;1.60;;;;;;;3.21;100.00;97922.69;5069688;28;20575;-70
2021/01/08 09:48:29;;;;;;;5.17;1.80;;;;;;;3.65;100.00;97918.94;5072165;28;20205;-74
2021/01/08 09:51:03;;;;;;;3.33;1.77;;;;;;;3.64;100.00;97925.19;5071005;28;20725;-73
2021/01/08 09:53:30;;;;;;;3.37;2.17;;;;;;;3.73;100.00;97926.88;5066838;28;20206;-70
2021/01/08 09:56:13;;;;;;;3.03;2.03;;;;;;;3.84;100.00;97923.09;5071637;28;20204;-71
2021/01/08 09:58:40;;;;;;;2.93;2.07;;;;;;;3.87;100.00;97920.97;5070378;28;20213;-73
2021/01/08 10:01:10;;;;;;;3.40;1.60;;;;;;;3.86;100.00;97921.16;5067751;28;20647;-74
2021/01/08 10:03:37;;;;;;;3.07;1.57;;;;;;;3.77;100.00;97928.19;5063583;28;20543;-74
2021/01/08 10:06:09;;;;;;;3.30;1.73;;;;;;;3.82;100.00;97933.00;5071880;28;20218;-73
2021/01/08 10:08:36;;;;;;;2.50;1.83;;;;;;;4.14;100.00;97928.63;5068301;28;20613;-75
2021/01/08 10:11:04;;;;;;;1.90;1.33;;;;;;;3.95;100.00;97933.34;5064336;28;20225;-70
2021/01/08 10:13:32;;;;;;;3.87;1.60;;;;;;;3.70;100.00;97943.03;5071625;28;20203;-75
2021/01/08 10:16:06;;;;;;;4.23;1.50;;;;;;;3.97;100.00;97926.94;5069045;28;20202;-74
2021/01/08 10:18:34;;;;;;;2.60;1.30;;;;;;;4.05;100.00;97934.88;5077365;28;20315;-72
2021/01/08 10:21:04;;;;;;;2.97;1.60;;;;;;;4.11;100.00;97938.69;5077835;28;20234;-73
2021/01/08 10:23:37;;;;;;;2.40;1.60;;;;;;;3.91;100.00;97934.69;5070193;28;20206;-75
2021/01/08 10:26:11;;;;;;;2.33;1.70;;;;;;;3.78;100.00;97942.22;5071460;28;20218;-75
2021/01/08 10:28:51;;;;;;;2.33;1.47;;;;;;;4.23;100.00;97932.94;5071030;28;20264;-74
2021/01/08 10:31:18;;;;;;;2.73;1.77;;;;;;;3.81;100.00;97929.53;5070798;28;20235;-77
2021/01/08 10:33:45;;;;;;;3.07;1.70;;;;;;;4.16;100.00;97934.56;5071367;28;20210;-75
2021/01/08 10:36:13;;;;;;;3.70;1.50;;;;;;;3.88;100.00;97933.19;5069219;28;20655;-77
2021/01/08 10:38:40;;;;;;;4.03;1.97;;;;;;;4.00;100.00;97936.34;5061428;28;20671;-73
2021/01/08 10:41:07;;;;;;;3.97;1.93;;;;;;;3.96;100.00;97927.13;5070986;28;20231;-76
2021/01/08 10:43:34;;;;;;;2.23;1.70;;;;;;;4.13;100.00;97934.91;5071924;28;20221;-73
2021/01/08 10:46:04;;;;;;;3.50;1.67;;;;;;;4.07;100.00;97934.72;5075059;28;20619;-87
2021/01/08 10:48:31;;;;;;;6.47;1.90;;;;;;;4.33;100.00;97938.91;5071293;28;20207;-81
2021/01/08 10:50:59;;;;;;;3.00;1.80;;;;;;;4.17;100.00;97933.56;5077970;28;20377;-81
2021/01/08 10:53:25;;;;;;;3.57;1.87;;;;;;;3.88;100.00;97925.28;5069212;28;20269;-82
2021/01/08 10:55:53;;;;;;;2.37;1.50;;;;;;;4.15;100.00;97934.72;5079834;28;20209;-80
2021/01/08 10:58:20;;;;;;;1.93;1.33;;;;;;;4.08;100.00;97931.09;5078946;28;20214;-82
2021/01/08 11:00:47;;;;;;;2.67;1.80;;;;;;;4.11;100.00;97922.84;5077676;28;20270;-78
2021/01/08 11:03:15;;;;;;;3.20;1.90;;;;;;;4.61;100.00;97927.00;5070774;28;20251;-78
2021/01/08 11:05:42;;;;;;;3.00;1.90;;;;;;;4.54;100.00;97925.19;5075640;28;22129;-77
2021/01/08 11:08:09;;;;;;;4.20;2.10;;;;;;;4.73;100.00;97925.66;5070347;28;20237;-79
2021/01/08 11:10:36;;;;;;;2.43;1.60;;;;;;;4.55;100.00;97914.47;5078238;28;20286;-76
2021/01/08 11:13:03;;;;;;;2.97;1.63;;;;;;;4.26;100.00;97914.09;5084643;28;20702;-77
2021/01/08 11:15:30;;;;;;;3.03;1.90;;;;;;;4.07;100.00;97927.59;5081782;28;20206;-77
2021/01/08 11:17:57;;;;;;;3.93;1.87;;;;;;;4.33;100.00;97919.56;5076184;28;20205;-77
2021/01/08 11:20:25;;;;;;;4.97;1.73;;;;;;;4.42;100.00;97919.41;5081742;28;20310;-76
2021/01/08 11:22:54;;;;;;;3.57;2.00;;;;;;;4.18;100.00;97913.28;5073584;28;20247;-80
2021/01/08 11:25:20;;;;;;;4.07;1.87;;;;;;;4.28;100.00;97919.22;5078173;28;20207;-87
2021/01/08 11:27:47;;;;;;;4.67;2.20;;;;;;;4.16;100.00;97910.00;5069301;28;20270;-84
2021/01/08 11:30:15;;;;;;;3.53;1.97;;;;;;;4.17;100.00;97909.00;5077605;28;20599;-78
2021/01/08 11:32:42;;;;;;;3.67;1.80;;;;;;;4.44;100.00;97908.66;5077399;28;20875;-75
2021/01/08 11:35:10;;;;;;;3.73;2.03;;;;;;;4.34;100.00;97902.72;5073846;28;20226;-75
2021/01/08 11:37:38;;;;;;;3.40;1.83;;;;;;;4.28;100.00;97913.94;5071858;28;20608;-75
2021/01/08 11:40:06;;;;;;;2.27;1.70;;;;;;;4.09;100.00;97912.44;5074298;28;20623;-73